createdAt,value
2023-04-29T00:00:12.241Z,77.27
2023-04-29T00:02:39.284Z,77.37
2023-04-29T00:05:06.997Z,77.13
2023-04-29T00:07:34.251Z,77.10
2023-04-29T00:10:01.345Z,76.67
2023-04-29T00:12:32.052Z,76.74
2023-04-29T00:15:00.130Z,76.67
2023-04-29T00:17:27.127Z,76.63
2023-04-29T00:19:54.323Z,76.30
2023-04-29T00:22:22.750Z,76.16
2023-04-29T00:24:50.620Z,76.12
2023-04-29T00:27:17.855Z,75.79
2023-04-29T00:29:45.099Z,75.94
2023-04-29T00:32:12.273Z,75.76
2023-04-29T00:34:39.118Z,75.50
2023-04-29T00:37:05.931Z,75.92
2023-04-29T00:39:32.881Z,75.90
2023-04-29T00:42:00.023Z,75.72
2023-04-29T00:44:26.847Z,75.44
2023-04-29T00:46:53.613Z,75.72
2023-04-29T00:49:20.788Z,75.57
2023-04-29T00:51:48.052Z,75.48
2023-04-29T00:54:16.115Z,75.41
2023-04-29T00:56:46.301Z,75.38
2023-04-29T00:59:15.468Z,75.10
2023-04-29T01:01:42.316Z,75.39
2023-04-29T01:04:10.258Z,75.33
2023-04-29T01:07:02.350Z,75.38
2023-04-29T01:09:35.240Z,75.11
2023-04-29T01:12:19.471Z,74.94
2023-04-29T01:14:53.409Z,75.13
2023-04-29T01:17:26.273Z,75.02
2023-04-29T01:19:58.949Z,75.05
2023-04-29T01:22:25.920Z,74.75
2023-04-29T01:24:52.838Z,75.07
2023-04-29T01:27:23.571Z,74.41
2023-04-29T01:30:02.488Z,74.64
2023-04-29T01:32:46.510Z,73.97
2023-04-29T01:35:45.821Z,74.55
2023-04-29T01:38:19.172Z,74.12
2023-04-29T01:41:18.339Z,73.84
2023-04-29T01:43:52.201Z,74.45
2023-04-29T01:46:22.773Z,73.80
2023-04-29T01:48:55.546Z,73.65
2023-04-29T01:51:22.499Z,73.26
2023-04-29T01:53:49.854Z,73.30
2023-04-29T01:56:18.170Z,73.09
2023-04-29T01:59:14.978Z,73.05
2023-04-29T02:02:07.636Z,72.87
2023-04-29T02:04:37.991Z,72.70
2023-04-29T02:07:04.938Z,72.70
2023-04-29T02:09:31.837Z,72.92
2023-04-29T02:12:06.285Z,72.51
2023-04-29T02:14:36.214Z,72.24
2023-04-29T02:17:04.900Z,72.04
2023-04-29T02:19:31.859Z,72.06
2023-04-29T02:21:58.812Z,71.92
2023-04-29T02:24:26.363Z,71.85
2023-04-29T02:26:53.674Z,71.55
2023-04-29T02:29:20.647Z,71.65
2023-04-29T02:31:47.807Z,71.67
2023-04-29T02:34:14.688Z,71.13
2023-04-29T02:36:41.557Z,72.06
2023-04-29T02:39:08.328Z,71.87
2023-04-29T02:41:35.227Z,71.56
2023-04-29T02:44:01.982Z,71.90
2023-04-29T02:46:29.260Z,71.64
2023-04-29T02:48:56.289Z,71.78
2023-04-29T02:51:23.420Z,71.72
2023-04-29T02:53:50.412Z,71.46
2023-04-29T02:56:17.209Z,72.09
2023-04-29T02:58:43.987Z,71.78
2023-04-29T03:01:11.330Z,71.73
2023-04-29T03:03:38.231Z,71.34
2023-04-29T03:06:05.396Z,71.46
2023-04-29T03:08:32.861Z,71.61
2023-04-29T03:10:59.965Z,71.68
2023-04-29T03:13:26.834Z,71.64
2023-04-29T03:15:54.133Z,71.57
2023-04-29T03:18:20.936Z,71.84
2023-04-29T03:20:48.094Z,71.61
2023-04-29T03:23:15.436Z,71.47
2023-04-29T03:25:42.434Z,71.14
2023-04-29T03:28:09.242Z,71.26
2023-04-29T03:30:37.397Z,70.82
2023-04-29T03:33:04.474Z,70.94
2023-04-29T03:35:32.153Z,70.57
2023-04-29T03:38:22.097Z,70.16
2023-04-29T03:40:49.352Z,70.16
2023-04-29T03:43:17.261Z,70.00
2023-04-29T03:45:44.392Z,70.00
2023-04-29T03:48:13.249Z,69.68
2023-04-29T03:50:40.202Z,69.65
2023-04-29T03:53:07.148Z,69.64
2023-04-29T03:55:34.502Z,68.55
2023-04-29T03:58:01.541Z,68.13
2023-04-29T04:00:31.235Z,68.75
2023-04-29T04:03:02.734Z,68.81
2023-04-29T04:05:31.894Z,69.07
2023-04-29T04:08:04.886Z,69.40
2023-04-29T04:10:50.601Z,69.24
2023-04-29T04:13:30.876Z,69.34
2023-04-29T04:15:58.294Z,69.10
2023-04-29T04:18:25.147Z,68.73
2023-04-29T04:20:52.102Z,68.46
2023-04-29T04:23:18.868Z,68.79
2023-04-29T04:25:49.536Z,68.63
2023-04-29T04:28:42.822Z,67.88
2023-04-29T04:31:15.911Z,68.01
2023-04-29T04:33:42.775Z,68.57
2023-04-29T04:36:09.578Z,69.25
2023-04-29T04:38:36.927Z,69.27
2023-04-29T04:41:08.298Z,69.51
2023-04-29T04:43:37.583Z,69.46
2023-04-29T04:46:13.642Z,69.93
2023-04-29T04:48:49.690Z,70.13
2023-04-29T04:51:16.770Z,69.98
2023-04-29T04:53:43.712Z,69.67
2023-04-29T04:56:18.701Z,70.31
2023-04-29T04:58:46.622Z,70.10
2023-04-29T05:01:14.885Z,70.19
2023-04-29T05:03:42.081Z,70.31
2023-04-29T05:06:09.161Z,70.19
2023-04-29T05:08:36.720Z,69.90
2023-04-29T05:11:05.030Z,70.50
2023-04-29T05:13:34.032Z,70.36
2023-04-29T05:16:06.222Z,70.29
2023-04-29T05:18:34.738Z,70.54
2023-04-29T05:21:01.720Z,70.42
2023-04-29T05:23:28.689Z,70.21
2023-04-29T05:25:56.220Z,69.81
2023-04-29T05:28:23.234Z,70.52
2023-04-29T05:30:52.063Z,70.44
2023-04-29T05:33:19.170Z,69.99
2023-04-29T05:35:46.415Z,69.86
2023-04-29T05:38:13.308Z,69.88
2023-04-29T05:40:41.746Z,69.82
2023-04-29T05:43:27.996Z,69.48
2023-04-29T05:45:56.741Z,69.81
2023-04-29T05:48:25.141Z,70.46
2023-04-29T05:50:52.353Z,69.84
2023-04-29T05:53:19.122Z,69.81
2023-04-29T05:55:46.929Z,70.45
2023-04-29T05:58:15.275Z,70.40
2023-04-29T06:00:43.845Z,70.54
2023-04-29T06:03:17.398Z,70.97
2023-04-29T06:05:44.743Z,70.81
2023-04-29T06:08:33.413Z,71.18
2023-04-29T06:11:11.277Z,71.17
2023-04-29T06:13:40.094Z,71.29
2023-04-29T06:16:07.951Z,71.20
2023-04-29T06:18:35.190Z,71.29
2023-04-29T06:21:01.984Z,71.26
2023-04-29T06:23:28.826Z,71.38
2023-04-29T06:25:56.246Z,71.61
2023-04-29T06:28:23.499Z,71.67
2023-04-29T06:30:50.301Z,71.61
2023-04-29T06:33:18.341Z,71.87
2023-04-29T06:35:45.182Z,71.94
2023-04-29T06:38:31.594Z,72.25
2023-04-29T06:41:14.409Z,71.69
2023-04-29T06:43:53.574Z,71.03
2023-04-29T06:46:39.461Z,71.59
2023-04-29T06:49:28.998Z,72.01
2023-04-29T06:51:56.233Z,72.14
2023-04-29T06:54:27.702Z,71.93
2023-04-29T06:56:54.853Z,72.06
2023-04-29T06:59:21.739Z,71.82
2023-04-29T07:01:49.941Z,71.87
2023-04-29T07:04:19.801Z,71.91
2023-04-29T07:06:48.263Z,72.05
2023-04-29T07:09:15.170Z,71.88
2023-04-29T07:11:42.571Z,71.76
2023-04-29T07:14:09.866Z,71.71
2023-04-29T07:16:36.707Z,71.84
2023-04-29T07:19:03.694Z,71.64
2023-04-29T07:21:31.401Z,71.45
2023-04-29T07:24:00.852Z,71.71
2023-04-29T07:26:28.785Z,71.78
2023-04-29T07:28:55.780Z,71.61
2023-04-29T07:31:24.300Z,71.64
2023-04-29T07:33:51.927Z,71.86
2023-04-29T07:36:19.032Z,71.95
2023-04-29T07:38:46.180Z,71.77
2023-04-29T07:41:13.839Z,71.90
2023-04-29T07:43:42.368Z,71.20
2023-04-29T07:46:09.778Z,71.07
2023-04-29T07:48:39.445Z,71.26
2023-04-29T07:51:07.242Z,71.40
2023-04-29T07:53:34.010Z,70.74
2023-04-29T07:56:06.048Z,70.22
2023-04-29T07:58:33.075Z,69.22
2023-04-29T08:01:12.471Z,68.97
2023-04-29T08:03:42.099Z,68.55
2023-04-29T08:06:10.556Z,67.75
2023-04-29T08:08:37.610Z,67.86
2023-04-29T08:11:04.701Z,67.34
2023-04-29T08:13:31.766Z,66.73
2023-04-29T08:15:58.580Z,66.89
2023-04-29T08:18:25.534Z,66.49
2023-04-29T08:20:52.444Z,66.37
2023-04-29T08:23:19.309Z,66.46
2023-04-29T08:25:46.326Z,66.64
2023-04-29T08:28:13.489Z,66.13
2023-04-29T08:30:43.082Z,66.36
2023-04-29T08:33:10.350Z,66.40
2023-04-29T08:35:37.762Z,66.38
2023-04-29T08:38:06.745Z,65.32
2023-04-29T08:40:51.969Z,65.43
2023-04-29T08:43:20.043Z,65.47
2023-04-29T08:45:49.162Z,65.38
2023-04-29T08:48:17.597Z,65.21
2023-04-29T08:50:45.260Z,65.02
2023-04-29T08:53:14.153Z,65.57
2023-04-29T08:55:45.907Z,65.53
2023-04-29T08:58:14.738Z,65.43
2023-04-29T09:00:43.636Z,66.13
2023-04-29T09:03:13.463Z,65.63
2023-04-29T09:05:43.344Z,65.59
2023-04-29T09:08:12.509Z,65.73
2023-04-29T09:10:42.191Z,65.45
2023-04-29T09:13:09.539Z,65.11
2023-04-29T09:15:42.694Z,65.06
2023-04-29T09:18:09.624Z,65.59
2023-04-29T09:20:36.477Z,65.60
2023-04-29T09:23:04.763Z,65.50
2023-04-29T09:25:31.887Z,65.38
2023-04-29T09:27:58.722Z,65.41
2023-04-29T09:30:27.008Z,64.91
2023-04-29T09:33:06.165Z,64.64
2023-04-29T09:35:33.081Z,65.20
2023-04-29T09:38:10.067Z,65.34
2023-04-29T09:40:50.055Z,65.04
2023-04-29T09:43:24.234Z,65.14
2023-04-29T09:45:51.279Z,65.01
2023-04-29T09:48:18.688Z,64.88
2023-04-29T09:51:04.156Z,64.94
2023-04-29T09:53:31.923Z,64.76
2023-04-29T09:56:03.826Z,64.70
2023-04-29T09:58:39.148Z,64.61
2023-04-29T10:01:07.499Z,64.56
2023-04-29T10:03:37.021Z,64.56
2023-04-29T10:06:06.620Z,64.10
2023-04-29T10:08:34.729Z,64.69
2023-04-29T10:11:03.466Z,64.82
2023-04-29T10:13:30.734Z,64.74
2023-04-29T10:16:16.118Z,64.88
2023-04-29T10:18:49.434Z,64.92
2023-04-29T10:21:18.601Z,65.01
2023-04-29T10:23:46.295Z,64.91
2023-04-29T10:26:15.289Z,64.85
2023-04-29T10:28:46.065Z,65.36
2023-04-29T10:31:13.734Z,65.57
2023-04-29T10:33:46.105Z,64.69
2023-04-29T10:36:13.331Z,65.20
2023-04-29T10:38:45.817Z,65.85
2023-04-29T10:41:23.169Z,65.89
2023-04-29T10:43:50.638Z,64.82
2023-04-29T10:46:17.467Z,65.31
2023-04-29T10:48:45.232Z,65.15
2023-04-29T10:51:12.322Z,65.33
2023-04-29T10:53:59.758Z,65.12
2023-04-29T10:56:51.079Z,64.96
2023-04-29T10:59:23.000Z,64.85
2023-04-29T11:01:54.024Z,64.78
2023-04-29T11:04:22.510Z,65.01
2023-04-29T11:06:54.443Z,64.87
2023-04-29T11:09:22.571Z,64.66
2023-04-29T11:12:06.258Z,64.79
2023-04-29T11:14:42.258Z,65.08
2023-04-29T11:17:16.969Z,64.88
2023-04-29T11:19:50.361Z,65.01
2023-04-29T11:22:23.085Z,64.90
2023-04-29T11:24:54.396Z,64.67
2023-04-29T11:27:25.646Z,64.76
2023-04-29T11:29:58.300Z,64.69
2023-04-29T11:32:31.273Z,64.34
2023-04-29T11:35:15.687Z,64.27
2023-04-29T11:37:45.401Z,64.98
2023-04-29T11:40:13.393Z,64.89
2023-04-29T11:42:49.191Z,64.95
2023-04-29T11:45:19.591Z,65.05
2023-04-29T11:47:47.922Z,65.23
2023-04-29T11:50:19.172Z,65.21
2023-04-29T11:52:50.094Z,64.98
2023-04-29T11:55:17.159Z,64.72
2023-04-29T11:57:44.422Z,64.72
2023-04-29T12:00:13.086Z,64.95
2023-04-29T12:02:44.004Z,64.66
2023-04-29T12:05:13.431Z,65.00
2023-04-29T12:07:40.663Z,65.51
2023-04-29T12:10:11.814Z,65.69
2023-04-29T12:12:41.491Z,65.21
2023-04-29T12:15:10.353Z,65.27
2023-04-29T12:17:38.828Z,65.20
2023-04-29T12:20:07.772Z,65.28
2023-04-29T12:22:35.358Z,65.00
2023-04-29T12:25:06.063Z,64.76
2023-04-29T12:27:34.560Z,64.41
2023-04-29T12:30:01.559Z,64.52
2023-04-29T12:32:28.582Z,64.30
2023-04-29T12:34:55.901Z,64.53
2023-04-29T12:37:26.296Z,65.03
2023-04-29T12:39:55.645Z,65.35
2023-04-29T12:42:22.495Z,65.56
2023-04-29T12:44:49.554Z,65.20
2023-04-29T12:47:17.231Z,64.95
2023-04-29T12:49:46.312Z,65.08
2023-04-29T12:52:13.514Z,64.81
2023-04-29T12:54:44.131Z,65.68
2023-04-29T12:57:11.970Z,65.41
2023-04-29T12:59:39.791Z,65.27
2023-04-29T13:02:06.799Z,65.14
2023-04-29T13:04:33.903Z,65.08
2023-04-29T13:07:01.150Z,64.88
2023-04-29T13:09:28.174Z,65.14
2023-04-29T13:11:55.041Z,64.67
2023-04-29T13:14:22.371Z,64.71
2023-04-29T13:16:49.478Z,64.90
2023-04-29T13:19:32.043Z,65.27
2023-04-29T13:22:03.310Z,65.22
2023-04-29T13:24:30.344Z,65.38
2023-04-29T13:26:58.217Z,64.98
2023-04-29T13:29:24.956Z,65.23
2023-04-29T13:31:51.788Z,65.17
2023-04-29T13:34:18.828Z,65.15
2023-04-29T13:36:46.216Z,64.93
2023-04-29T13:39:14.823Z,64.86
2023-04-29T13:41:45.537Z,64.82
2023-04-29T13:44:23.618Z,65.08
2023-04-29T13:46:52.456Z,64.92
2023-04-29T13:49:42.401Z,65.30
2023-04-29T13:52:42.827Z,65.06
2023-04-29T13:59:55.340Z,65.22
2023-04-29T14:02:25.789Z,64.97
2023-04-29T14:04:54.008Z,65.17
2023-04-29T14:07:21.275Z,65.35
2023-04-29T14:09:49.398Z,65.53
2023-04-29T14:12:16.196Z,65.30
2023-04-29T14:14:43.139Z,65.51
2023-04-29T14:17:09.928Z,65.71
2023-04-29T14:19:36.788Z,65.67
2023-04-29T14:22:03.708Z,65.56
2023-04-29T14:24:31.124Z,65.78
2023-04-29T14:26:58.031Z,65.62
2023-04-29T14:29:25.027Z,65.78
2023-04-29T14:31:51.955Z,65.69
2023-04-29T14:34:19.813Z,65.93
2023-04-29T14:36:46.835Z,65.35
2023-04-29T14:39:13.739Z,65.66
2023-04-29T14:41:40.484Z,65.59
2023-04-29T14:44:07.331Z,65.54
2023-04-29T14:46:34.797Z,65.32
2023-04-29T14:49:02.215Z,65.36
2023-04-29T14:51:29.497Z,65.69
2023-04-29T14:53:56.562Z,66.00
2023-04-29T14:56:23.318Z,65.62
2023-04-29T14:58:50.290Z,65.52
2023-04-29T15:01:17.104Z,65.78
2023-04-29T15:03:45.037Z,65.43
2023-04-29T15:06:13.094Z,65.35
2023-04-29T15:08:40.126Z,65.66
2023-04-29T15:11:06.985Z,66.11
2023-04-29T15:13:34.115Z,65.11
2023-04-29T15:16:00.954Z,65.25
2023-04-29T15:18:27.901Z,65.84
2023-04-29T15:20:54.762Z,65.64
2023-04-29T15:23:21.704Z,65.91
2023-04-29T15:25:48.558Z,66.17
2023-04-29T15:28:15.705Z,66.01
2023-04-29T15:30:42.688Z,65.24
2023-04-29T15:33:09.775Z,65.52
2023-04-29T15:35:36.909Z,65.75
2023-04-29T15:38:03.877Z,64.92
2023-04-29T15:40:30.748Z,65.07
2023-04-29T15:42:57.761Z,66.05
2023-04-29T15:45:24.706Z,65.40
2023-04-29T15:47:51.615Z,65.64
2023-04-29T15:50:18.460Z,65.50
2023-04-29T15:52:45.348Z,65.70
2023-04-29T15:55:12.405Z,65.72
2023-04-29T15:57:42.788Z,65.41
2023-04-29T16:00:10.378Z,65.37
2023-04-29T16:02:37.214Z,65.72
2023-04-29T16:05:04.402Z,65.28
2023-04-29T16:07:31.326Z,65.59
2023-04-29T16:09:58.357Z,65.49
2023-04-29T16:12:25.215Z,65.22
2023-04-29T16:14:52.276Z,64.75
2023-04-29T16:17:19.193Z,64.83
2023-04-29T16:19:46.108Z,64.87
2023-04-29T16:22:12.871Z,64.69
2023-04-29T16:24:39.963Z,64.82
2023-04-29T16:27:06.697Z,64.50
2023-04-29T16:29:33.707Z,64.82
2023-04-29T16:32:00.656Z,64.34
2023-04-29T16:34:27.557Z,64.14
2023-04-29T16:36:54.337Z,64.25
2023-04-29T16:39:21.275Z,64.37
2023-04-29T16:41:48.317Z,64.18
2023-04-29T16:44:15.376Z,64.26
2023-04-29T16:46:42.498Z,64.41
2023-04-29T16:49:09.365Z,64.85
2023-04-29T16:51:36.318Z,64.50
2023-04-29T16:54:03.164Z,64.40
2023-04-29T16:56:29.907Z,64.56
2023-04-29T16:58:57.053Z,64.79
2023-04-29T17:01:23.919Z,64.59
2023-04-29T17:03:50.982Z,64.49
2023-04-29T17:06:17.930Z,64.63
2023-04-29T17:08:45.516Z,64.82
2023-04-29T17:11:12.484Z,64.64
2023-04-29T17:13:39.564Z,64.98
2023-04-29T17:16:07.534Z,64.95
2023-04-29T17:18:34.518Z,65.10
2023-04-29T17:21:02.836Z,65.14
2023-04-29T17:23:30.776Z,65.21
2023-04-29T17:25:57.749Z,65.23
2023-04-29T17:28:25.076Z,64.98
2023-04-29T17:30:55.640Z,64.88
2023-04-29T17:33:22.677Z,65.01
2023-04-29T17:35:49.485Z,65.01
2023-04-29T17:38:16.582Z,65.01
2023-04-29T17:40:43.749Z,64.97
2023-04-29T17:43:10.799Z,65.14
2023-04-29T17:45:40.555Z,65.18
2023-04-29T17:48:07.781Z,65.17
2023-04-29T17:50:34.673Z,65.30
2023-04-29T17:53:01.669Z,65.39
2023-04-29T17:55:28.454Z,65.36
2023-04-29T17:57:56.572Z,65.37
2023-04-29T18:00:23.670Z,65.21
2023-04-29T18:02:50.691Z,65.40
2023-04-29T18:05:17.793Z,65.41
2023-04-29T18:07:44.639Z,65.48
2023-04-29T18:10:11.551Z,65.46
2023-04-29T18:12:38.431Z,65.50
2023-04-29T18:15:06.363Z,65.68
2023-04-29T18:17:33.841Z,65.75
2023-04-29T18:20:00.921Z,65.66
2023-04-29T18:22:27.752Z,65.83
2023-04-29T18:24:54.489Z,65.95
2023-04-29T18:27:21.942Z,65.87
2023-04-29T18:29:48.815Z,66.14
2023-04-29T18:32:16.111Z,66.37
2023-04-29T18:34:43.072Z,66.60
2023-04-29T18:37:10.042Z,66.69
2023-04-29T18:39:36.832Z,66.75
2023-04-29T18:42:06.647Z,66.91
2023-04-29T18:44:33.636Z,67.17
2023-04-29T18:47:00.470Z,67.25
2023-04-29T18:49:27.572Z,67.32
2023-04-29T18:51:54.313Z,67.41
2023-04-29T18:54:21.982Z,67.64
2023-04-29T18:56:49.893Z,67.61
2023-04-29T18:59:19.744Z,67.62
2023-04-29T19:01:48.366Z,67.84
2023-04-29T19:04:16.149Z,67.93
2023-04-29T19:06:43.326Z,67.95
2023-04-29T19:09:11.408Z,68.07
2023-04-29T19:11:38.388Z,68.14
2023-04-29T19:14:05.999Z,68.23
2023-04-29T19:16:34.812Z,68.47
2023-04-29T19:19:04.245Z,68.42
2023-04-29T19:21:33.413Z,68.49
2023-04-29T19:24:00.584Z,68.48
2023-04-29T19:26:27.413Z,68.67
2023-04-29T19:28:54.737Z,68.75
2023-04-29T19:31:21.751Z,68.81
2023-04-29T19:33:48.848Z,68.84
2023-04-29T19:36:15.700Z,68.77
2023-04-29T19:38:42.702Z,68.71
2023-04-29T19:41:09.797Z,68.81
2023-04-29T19:43:36.687Z,68.96
2023-04-29T19:46:03.591Z,68.81
2023-04-29T19:48:30.947Z,68.94
2023-04-29T19:50:59.796Z,69.00
2023-04-29T19:53:27.651Z,69.13
2023-04-29T19:55:54.446Z,69.24
2023-04-29T19:58:21.489Z,69.07
2023-04-29T20:00:48.644Z,69.11
2023-04-29T20:03:16.127Z,69.20
2023-04-29T20:05:43.372Z,69.32
2023-04-29T20:08:10.328Z,69.42
2023-04-29T20:10:37.260Z,69.42
2023-04-29T20:13:04.122Z,69.54
2023-04-29T20:15:30.945Z,69.55
2023-04-29T20:17:58.342Z,69.55
2023-04-29T20:20:25.825Z,69.61
2023-04-29T20:22:52.805Z,69.65
2023-04-29T20:25:20.651Z,69.72
2023-04-29T20:27:47.589Z,69.86
2023-04-29T20:30:14.428Z,69.89
2023-04-29T20:32:41.518Z,69.81
2023-04-29T20:35:08.454Z,69.84
2023-04-29T20:37:36.282Z,69.88
2023-04-29T20:40:06.451Z,69.83
2023-04-29T20:42:33.550Z,69.88
2023-04-29T20:45:00.394Z,69.99
2023-04-29T20:47:28.486Z,70.05
2023-04-29T20:49:55.803Z,69.96
2023-04-29T20:52:23.961Z,69.94
2023-04-29T20:54:52.579Z,69.82
2023-04-29T20:57:19.554Z,69.97
2023-04-29T20:59:46.475Z,69.93
2023-04-29T21:02:13.423Z,70.06
2023-04-29T21:04:40.455Z,70.13
2023-04-29T21:07:07.704Z,70.17
2023-04-29T21:09:35.846Z,70.06
2023-04-29T21:12:06.265Z,70.19
2023-04-29T21:14:33.799Z,70.19
2023-04-29T21:17:00.972Z,70.28
2023-04-29T21:19:27.979Z,70.37
2023-04-29T21:21:54.725Z,70.26
2023-04-29T21:24:21.600Z,70.19
2023-04-29T21:26:50.362Z,70.32
2023-04-29T21:29:17.326Z,70.41
2023-04-29T21:31:44.241Z,70.40
2023-04-29T21:34:11.272Z,70.44
2023-04-29T21:36:38.034Z,70.36
2023-04-29T21:39:06.247Z,70.35
2023-04-29T21:41:37.508Z,70.37
2023-04-29T21:44:06.116Z,70.44
2023-04-29T21:46:34.107Z,70.43
2023-04-29T21:49:02.268Z,70.22
2023-04-29T21:51:29.405Z,70.26
2023-04-29T21:53:56.390Z,70.35
2023-04-29T21:56:24.598Z,70.39
2023-04-29T21:58:51.573Z,70.36
2023-04-29T22:01:39.637Z,70.47
2023-04-29T22:04:06.882Z,70.39
2023-04-29T22:06:34.548Z,70.42
2023-04-29T22:09:02.536Z,70.54
2023-04-29T22:11:29.474Z,70.61
2023-04-29T22:13:56.524Z,70.56
2023-04-29T22:16:23.684Z,70.56
2023-04-29T22:18:51.297Z,70.40
2023-04-29T22:21:18.952Z,70.42
2023-04-29T22:23:46.548Z,70.48
2023-04-29T22:26:13.321Z,70.58
2023-04-29T22:28:40.486Z,70.53
2023-04-29T22:31:07.291Z,70.48
2023-04-29T22:33:35.068Z,70.48
2023-04-29T22:36:02.284Z,70.48
2023-04-29T22:38:29.550Z,70.47
2023-04-29T22:40:56.496Z,70.44
2023-04-29T22:43:23.403Z,70.41
2023-04-29T22:45:53.627Z,70.55
2023-04-29T22:48:20.929Z,70.47
2023-04-29T22:50:55.401Z,70.53
2023-04-29T22:53:23.060Z,70.58
2023-04-29T22:55:54.372Z,70.67
2023-04-29T22:58:21.949Z,70.75
2023-04-29T23:00:54.184Z,70.73
2023-04-29T23:03:21.249Z,70.68
2023-04-29T23:05:48.230Z,70.78
2023-04-29T23:08:15.219Z,70.88
2023-04-29T23:10:46.797Z,70.87
2023-04-29T23:13:13.748Z,71.03
2023-04-29T23:15:40.991Z,71.03
2023-04-29T23:18:08.079Z,71.09
2023-04-29T23:20:34.857Z,71.16
2023-04-29T23:23:01.686Z,71.23
2023-04-29T23:25:28.563Z,71.26
2023-04-29T23:27:55.775Z,71.36
2023-04-29T23:30:22.799Z,71.40
2023-04-29T23:32:49.722Z,71.57
2023-04-29T23:35:16.525Z,71.62
2023-04-29T23:37:43.467Z,71.67
2023-04-29T23:40:10.611Z,71.75
2023-04-29T23:42:37.427Z,71.80
2023-04-29T23:45:04.487Z,71.80
2023-04-29T23:47:31.464Z,71.88
2023-04-29T23:49:58.256Z,71.91
2023-04-29T23:52:25.336Z,71.96
2023-04-29T23:54:52.077Z,71.93
2023-04-29T23:57:18.925Z,71.94
2023-04-29T23:59:45.729Z,72.09
